createdAt,value
2018-01-10T00:00:11.617Z,6.50
2018-01-10T00:02:39.822Z,6.50
2018-01-10T00:05:07.265Z,6.50
2018-01-10T00:07:34.705Z,6.40
2018-01-10T00:10:02.217Z,6.40
2018-01-10T00:12:29.644Z,6.40
2018-01-10T00:14:57.094Z,6.40
2018-01-10T00:17:24.522Z,6.50
2018-01-10T00:19:51.973Z,6.50
2018-01-10T00:22:19.409Z,6.50
2018-01-10T00:24:46.857Z,6.60
2018-01-10T00:27:14.293Z,6.60
2018-01-10T00:29:41.738Z,6.60
2018-01-10T00:32:09.176Z,6.60
2018-01-10T00:34:36.619Z,6.60
2018-01-10T00:37:04.063Z,6.60
2018-01-10T00:39:32.277Z,6.60
2018-01-10T00:41:59.713Z,6.60
2018-01-10T00:44:27.140Z,6.60
2018-01-10T00:46:54.589Z,6.60
2018-01-10T00:49:22.020Z,6.60
2018-01-10T00:51:49.488Z,6.60
2018-01-10T00:54:16.924Z,6.60
2018-01-10T00:56:44.364Z,6.60
2018-01-10T00:59:11.804Z,6.60
2018-01-10T01:01:39.252Z,6.60
2018-01-10T01:04:07.466Z,6.60
2018-01-10T01:06:34.914Z,6.50
2018-01-10T01:09:02.348Z,6.60
2018-01-10T01:11:29.788Z,6.60
2018-01-10T01:13:57.224Z,6.60
2018-01-10T01:16:24.672Z,6.50
2018-01-10T01:18:52.108Z,6.50
2018-01-10T01:21:19.548Z,6.50
2018-01-10T01:23:46.980Z,6.50
2018-01-10T01:26:14.420Z,6.50
2018-01-10T01:28:42.624Z,6.50
2018-01-10T01:31:10.077Z,6.60
2018-01-10T01:33:37.509Z,6.50
2018-01-10T01:36:04.971Z,6.50
2018-01-10T01:38:32.406Z,6.50
2018-01-10T01:40:59.840Z,6.50
2018-01-10T01:43:27.288Z,6.50
2018-01-10T01:45:54.725Z,6.50
2018-01-10T01:48:22.169Z,6.50
2018-01-10T01:50:49.587Z,6.60
2018-01-10T01:53:17.797Z,6.60
2018-01-10T01:55:45.275Z,6.60
2018-01-10T01:58:12.707Z,6.60
2018-01-10T02:00:40.143Z,6.60
2018-01-10T02:03:07.592Z,6.60
2018-01-10T02:05:35.019Z,6.60
2018-01-10T02:08:02.459Z,6.70
2018-01-10T02:10:29.898Z,6.70
2018-01-10T02:12:57.335Z,6.60
2018-01-10T02:15:24.763Z,6.60
2018-01-10T02:17:52.967Z,6.70
2018-01-10T02:20:20.397Z,6.60
2018-01-10T02:22:47.835Z,6.70
2018-01-10T02:25:15.355Z,6.70
2018-01-10T02:27:42.795Z,6.70
2018-01-10T02:30:10.224Z,6.70
2018-01-10T02:32:37.727Z,6.80
2018-01-10T02:35:05.155Z,6.80
2018-01-10T02:37:32.583Z,6.80
2018-01-10T02:40:00.042Z,6.90
2018-01-10T02:42:36.954Z,6.90
2018-01-10T02:45:04.379Z,6.90
2018-01-10T02:47:32.571Z,7.00
2018-01-10T02:50:00.017Z,7.00
2018-01-10T02:52:27.426Z,7.10
2018-01-10T02:54:54.871Z,7.10
2018-01-10T02:57:22.294Z,7.10
2018-01-10T02:59:49.735Z,7.10
2018-01-10T03:02:17.927Z,7.20
2018-01-10T03:04:45.363Z,7.10
2018-01-10T03:07:12.787Z,7.20
2018-01-10T03:09:40.228Z,7.20
2018-01-10T03:12:07.656Z,7.20
2018-01-10T03:14:35.083Z,7.20
2018-01-10T03:17:03.283Z,7.20
2018-01-10T03:19:30.714Z,7.20
2018-01-10T03:21:58.140Z,7.20
2018-01-10T03:24:25.572Z,7.30
2018-01-10T03:26:52.998Z,7.30
2018-01-10T03:29:20.432Z,7.30
2018-01-10T03:31:48.626Z,7.30
2018-01-10T03:34:16.055Z,7.30
2018-01-10T03:36:43.487Z,7.40
2018-01-10T03:39:10.908Z,7.40
2018-01-10T03:41:38.335Z,7.40
2018-01-10T03:44:06.532Z,7.40
2018-01-10T03:46:33.959Z,7.40
2018-01-10T03:49:01.386Z,7.40
2018-01-10T03:51:28.825Z,7.40
2018-01-10T03:53:56.251Z,7.40
2018-01-10T03:56:23.771Z,7.40
2018-01-10T03:58:51.190Z,7.50
2018-01-10T04:01:18.627Z,7.50
2018-01-10T04:03:45.603Z,7.40
2018-01-10T04:06:13.032Z,7.40
2018-01-10T04:08:40.467Z,7.40
2018-01-10T04:11:07.903Z,7.40
2018-01-10T04:13:35.336Z,7.40
2018-01-10T04:16:02.765Z,7.40
2018-01-10T04:18:30.187Z,7.40
2018-01-10T04:20:57.626Z,7.50
2018-01-10T04:23:25.046Z,7.50
2018-01-10T04:25:52.699Z,7.50
2018-01-10T04:28:20.122Z,7.50
2018-01-10T04:30:47.725Z,7.60
2018-01-10T04:33:15.150Z,7.60
2018-01-10T04:35:42.571Z,7.70
2018-01-10T04:38:10.195Z,7.70
2018-01-10T04:40:37.619Z,7.70
2018-01-10T04:43:05.055Z,7.70
2018-01-10T04:45:33.239Z,7.70
2018-01-10T04:48:00.673Z,7.70
2018-01-10T04:50:28.102Z,7.70
2018-01-10T04:52:55.535Z,7.70
2018-01-10T04:55:22.951Z,7.80
2018-01-10T04:57:51.164Z,7.80
2018-01-10T05:00:18.618Z,7.80
2018-01-10T05:02:46.047Z,7.80
2018-01-10T05:05:13.462Z,7.80
2018-01-10T05:07:40.985Z,7.80
2018-01-10T05:10:08.394Z,7.90
2018-01-10T05:12:36.591Z,7.90
2018-01-10T05:15:04.019Z,7.90
2018-01-10T05:17:31.631Z,7.90
2018-01-10T05:19:59.090Z,7.90
2018-01-10T05:22:27.236Z,7.80
2018-01-10T05:24:54.663Z,7.80
2018-01-10T05:27:22.098Z,7.80
2018-01-10T05:29:49.598Z,7.80
2018-01-10T05:32:17.030Z,7.70
2018-01-10T05:34:44.463Z,7.70
2018-01-10T05:37:11.890Z,7.70
2018-01-10T05:39:39.324Z,7.60
2018-01-10T05:42:06.751Z,7.60
2018-01-10T05:44:34.187Z,7.60
2018-01-10T05:47:01.742Z,7.60
2018-01-10T05:49:29.284Z,7.50
2018-01-10T05:51:56.711Z,7.60
2018-01-10T05:54:24.149Z,7.60
2018-01-10T05:56:51.571Z,7.60
2018-01-10T05:59:19.784Z,7.50
2018-01-10T06:01:47.203Z,7.50
2018-01-10T06:04:14.639Z,7.50
2018-01-10T06:06:42.076Z,7.50
2018-01-10T06:09:09.531Z,7.50
2018-01-10T06:11:36.963Z,7.50
2018-01-10T06:14:04.407Z,7.50
2018-01-10T06:16:31.839Z,7.50
2018-01-10T06:18:59.281Z,7.50
2018-01-10T06:21:26.710Z,7.50
2018-01-10T06:23:54.137Z,7.50
2018-01-10T06:26:22.354Z,7.50
2018-01-10T06:28:49.788Z,7.40
2018-01-10T06:31:17.222Z,7.50
2018-01-10T06:33:44.661Z,7.50
2018-01-10T06:36:12.104Z,7.50
2018-01-10T06:38:39.524Z,7.40
2018-01-10T06:41:06.955Z,7.40
2018-01-10T06:43:34.387Z,7.40
2018-01-10T06:46:02.600Z,7.40
2018-01-10T06:48:30.032Z,7.40
2018-01-10T06:50:57.471Z,7.40
2018-01-10T06:53:24.888Z,7.40
2018-01-10T06:55:52.332Z,7.40
2018-01-10T06:58:19.767Z,7.40
2018-01-10T07:00:47.207Z,7.40
2018-01-10T07:03:15.407Z,7.40
2018-01-10T07:05:42.847Z,7.30
2018-01-10T07:08:10.283Z,7.30
2018-01-10T07:10:37.703Z,7.30
2018-01-10T07:13:05.153Z,7.30
2018-01-10T07:15:32.593Z,7.30
2018-01-10T07:18:00.039Z,7.30
2018-01-10T07:20:27.464Z,7.30
2018-01-10T07:22:55.671Z,7.20
2018-01-10T07:25:23.103Z,7.20
2018-01-10T07:27:50.543Z,7.30
2018-01-10T07:30:17.972Z,7.20
2018-01-10T07:32:45.413Z,7.20
2018-01-10T07:35:12.903Z,7.30
2018-01-10T07:37:40.342Z,7.30
2018-01-10T07:40:07.778Z,7.30
2018-01-10T07:42:35.194Z,7.30
2018-01-10T07:45:03.395Z,7.30
2018-01-10T07:47:30.818Z,7.30
2018-01-10T07:49:58.327Z,7.30
2018-01-10T07:52:25.763Z,7.30
2018-01-10T07:54:53.203Z,7.30
2018-01-10T07:57:20.631Z,7.20
2018-01-10T07:59:48.072Z,7.20
2018-01-10T08:02:15.507Z,7.20
2018-01-10T08:04:42.942Z,7.20
2018-01-10T08:07:10.371Z,7.20
2018-01-10T08:09:38.575Z,7.30
2018-01-10T08:12:06.009Z,7.30
2018-01-10T08:14:33.447Z,7.20
2018-01-10T08:17:00.875Z,7.20
2018-01-10T08:19:28.307Z,7.30
2018-01-10T08:21:55.760Z,7.30
2018-01-10T08:24:23.254Z,7.30
2018-01-10T08:26:50.699Z,7.30
2018-01-10T08:29:18.134Z,7.20
2018-01-10T08:31:45.580Z,7.20
2018-01-10T08:34:13.003Z,7.30
2018-01-10T08:36:41.217Z,7.30
2018-01-10T08:39:08.643Z,7.20
2018-01-10T08:41:36.175Z,7.30
2018-01-10T08:44:03.607Z,7.30
2018-01-10T08:46:31.240Z,7.20
2018-01-10T08:48:58.684Z,7.30
2018-01-10T08:51:26.120Z,7.30
2018-01-10T08:53:54.320Z,7.40
2018-01-10T08:56:21.755Z,7.40
2018-01-10T08:58:49.180Z,7.40
2018-01-10T09:01:16.711Z,7.40
2018-01-10T09:03:44.143Z,7.50
2018-01-10T09:06:11.567Z,7.50
2018-01-10T09:08:39.783Z,7.50
2018-01-10T09:11:07.211Z,7.50
2018-01-10T09:13:34.635Z,7.60
2018-01-10T09:16:02.068Z,7.60
2018-01-10T09:18:29.509Z,7.60
2018-01-10T09:20:56.927Z,7.70
2018-01-10T09:23:24.363Z,7.80
2018-01-10T09:25:51.792Z,7.80
2018-01-10T09:28:19.228Z,7.80
2018-01-10T09:30:46.651Z,7.80
2018-01-10T09:33:14.857Z,7.20
2018-01-10T09:35:42.287Z,7.90
2018-01-10T09:38:09.719Z,7.90
2018-01-10T09:40:37.143Z,7.90
2018-01-10T09:43:04.635Z,8.00
2018-01-10T09:45:32.064Z,8.00
2018-01-10T09:47:59.608Z,8.00
2018-01-10T09:50:27.035Z,8.10
2018-01-10T09:52:54.459Z,8.10
2018-01-10T09:55:21.895Z,8.20
2018-01-10T09:57:49.332Z,8.20
2018-01-10T10:00:16.761Z,8.30
2018-01-10T10:02:44.188Z,8.30
2018-01-10T10:05:12.389Z,8.40
2018-01-10T10:07:39.822Z,8.50
2018-01-10T10:10:07.246Z,8.50
2018-01-10T10:12:34.676Z,8.50
2018-01-10T10:15:02.102Z,8.50
2018-01-10T10:17:29.531Z,8.60
2018-01-10T10:19:56.959Z,8.60
2018-01-10T10:22:24.378Z,8.70
2018-01-10T10:24:51.798Z,8.70
2018-01-10T10:27:19.235Z,8.70
2018-01-10T10:29:46.658Z,8.80
2018-01-10T10:32:14.100Z,8.80
2018-01-10T10:34:41.523Z,8.80
2018-01-10T10:37:08.951Z,8.90
2018-01-10T10:39:36.375Z,8.90
2018-01-10T10:42:03.812Z,8.90
2018-01-10T10:44:32.000Z,9.00
2018-01-10T10:46:59.427Z,9.00
2018-01-10T10:49:26.847Z,9.10
2018-01-10T10:51:54.287Z,9.00
2018-01-10T10:54:21.714Z,9.00
2018-01-10T10:56:49.149Z,9.00
2018-01-10T10:59:17.332Z,8.90
2018-01-10T11:01:44.768Z,9.00
2018-01-10T11:04:12.223Z,9.10
2018-01-10T11:06:39.643Z,9.10
2018-01-10T11:09:07.074Z,9.20
2018-01-10T11:11:34.503Z,9.30
2018-01-10T11:14:02.695Z,9.70
2018-01-10T11:16:30.123Z,9.60
2018-01-10T11:18:57.555Z,9.80
2018-01-10T11:21:24.996Z,10.00
2018-01-10T11:23:52.418Z,10.00
2018-01-10T11:26:19.847Z,10.10
2018-01-10T11:28:48.066Z,10.30
2018-01-10T11:31:15.486Z,10.30
2018-01-10T11:33:42.928Z,10.40
2018-01-10T11:36:10.356Z,10.50
2018-01-10T11:38:37.795Z,10.60
2018-01-10T11:41:05.229Z,10.70
2018-01-10T11:43:32.661Z,10.80
2018-01-10T11:46:00.859Z,10.70
2018-01-10T11:48:28.296Z,10.70
2018-01-10T11:50:55.762Z,10.70
2018-01-10T11:53:23.147Z,10.80
2018-01-10T11:55:50.620Z,10.80
2018-01-10T11:58:18.047Z,10.80
2018-01-10T12:00:45.484Z,10.90
2018-01-10T12:03:12.911Z,11.00
2018-01-10T12:05:40.392Z,11.20
2018-01-10T12:08:08.579Z,11.70
2018-01-10T12:10:36.060Z,11.70
2018-01-10T12:13:03.490Z,11.90
2018-01-10T12:15:30.943Z,12.20
2018-01-10T12:17:58.415Z,12.30
2018-01-10T12:20:25.842Z,12.50
2018-01-10T12:22:54.878Z,12.90
2018-01-10T12:25:22.295Z,12.90
2018-01-10T12:27:49.731Z,13.20
2018-01-10T12:30:17.195Z,13.40
2018-01-10T12:32:44.623Z,13.60
2018-01-10T12:35:12.103Z,13.70
2018-01-10T12:37:39.543Z,13.80
2018-01-10T12:40:06.971Z,13.90
2018-01-10T12:42:34.406Z,14.00
2018-01-10T12:45:01.834Z,13.90
2018-01-10T12:47:30.035Z,13.80
2018-01-10T12:49:57.455Z,13.80
2018-01-10T12:52:24.895Z,13.80
2018-01-10T12:54:52.319Z,13.80
2018-01-10T12:57:19.738Z,13.90
2018-01-10T12:59:47.940Z,13.90
2018-01-10T13:02:15.359Z,13.90
2018-01-10T13:04:42.790Z,13.80
2018-01-10T13:07:10.225Z,13.70
2018-01-10T13:09:37.655Z,13.50
2018-01-10T13:12:05.079Z,13.20
2018-01-10T13:14:33.271Z,12.90
2018-01-10T13:17:00.699Z,12.90
2018-01-10T13:19:28.131Z,12.80
2018-01-10T13:21:55.562Z,12.60
2018-01-10T13:24:22.987Z,12.50
2018-01-10T13:26:51.171Z,12.50
2018-01-10T13:29:18.607Z,12.50
2018-01-10T13:31:46.032Z,12.50
2018-01-10T13:34:13.468Z,12.40
2018-01-10T13:36:40.900Z,12.40
2018-01-10T13:39:08.331Z,12.50
2018-01-10T13:41:36.715Z,13.50
2018-01-10T13:44:04.899Z,14.30
2018-01-10T13:46:32.331Z,14.30
2018-01-10T13:49:00.523Z,14.30
2018-01-10T13:51:27.959Z,14.20
2018-01-10T13:53:55.387Z,13.90
2018-01-10T13:56:22.819Z,13.60
2018-01-10T13:58:50.239Z,13.30
2018-01-10T14:01:17.676Z,13.10
2018-01-10T14:03:45.091Z,13.10
2018-01-10T14:06:12.527Z,12.90
2018-01-10T14:08:39.947Z,12.80
2018-01-10T14:11:08.147Z,12.50
2018-01-10T14:13:35.570Z,12.40
2018-01-10T14:16:03.011Z,12.30
2018-01-10T14:18:30.442Z,12.20
2018-01-10T14:20:57.858Z,12.10
2018-01-10T14:23:26.060Z,11.80
2018-01-10T14:25:53.483Z,11.80
2018-01-10T14:28:20.920Z,11.80
2018-01-10T14:30:48.339Z,11.70
2018-01-10T14:33:15.767Z,11.70
2018-01-10T14:35:43.187Z,11.60
2018-01-10T14:38:10.619Z,11.70
2018-01-10T14:40:38.041Z,11.80
2018-01-10T14:43:05.475Z,11.90
2018-01-10T14:45:32.896Z,12.00
2018-01-10T14:48:00.331Z,12.00
2018-01-10T14:50:27.753Z,12.00
2018-01-10T14:52:55.190Z,11.90
2018-01-10T14:55:22.611Z,11.80
2018-01-10T14:57:50.055Z,11.70
2018-01-10T15:00:17.466Z,11.60
2018-01-10T15:02:45.655Z,11.50
2018-01-10T15:05:13.083Z,11.50
2018-01-10T15:07:41.275Z,11.30
2018-01-10T15:10:08.699Z,11.30
2018-01-10T15:12:36.322Z,11.30
2018-01-10T15:15:03.751Z,11.20
2018-01-10T15:17:31.203Z,11.20
2018-01-10T15:19:58.635Z,11.10
2018-01-10T15:22:26.823Z,11.00
2018-01-10T15:24:54.320Z,11.00
2018-01-10T15:27:21.740Z,10.90
2018-01-10T15:29:49.171Z,10.90
2018-01-10T15:32:16.595Z,10.80
2018-01-10T15:34:44.028Z,10.80
2018-01-10T15:37:11.448Z,10.70
2018-01-10T15:39:39.655Z,10.70
2018-01-10T15:42:07.071Z,10.70
2018-01-10T15:44:34.494Z,10.60
2018-01-10T15:47:01.918Z,10.60
2018-01-10T15:49:29.339Z,10.50
2018-01-10T15:51:57.543Z,10.40
2018-01-10T15:54:24.967Z,10.40
2018-01-10T15:56:52.408Z,10.40
2018-01-10T15:59:19.839Z,10.30
2018-01-10T16:01:47.267Z,10.30
2018-01-10T16:04:14.695Z,10.20
2018-01-10T16:06:42.891Z,10.20
2018-01-10T16:09:10.312Z,10.10
2018-01-10T16:11:37.750Z,10.10
2018-01-10T16:14:05.167Z,10.10
2018-01-10T16:16:32.598Z,10.00
2018-01-10T16:19:00.783Z,10.00
2018-01-10T16:21:28.200Z,9.90
2018-01-10T16:23:55.650Z,9.90
2018-01-10T16:26:23.072Z,9.90
2018-01-10T16:28:50.499Z,9.90
2018-01-10T16:31:18.715Z,9.80
2018-01-10T16:33:46.143Z,9.80
2018-01-10T16:36:13.555Z,9.70
2018-01-10T16:38:41.000Z,9.70
2018-01-10T16:41:08.424Z,9.70
2018-01-10T16:43:35.851Z,9.70
2018-01-10T16:46:04.028Z,9.70
2018-01-10T16:48:31.456Z,9.70
2018-01-10T16:50:58.875Z,9.70
2018-01-10T16:53:26.299Z,9.70
2018-01-10T16:55:53.727Z,9.70
2018-01-10T16:58:21.911Z,9.60
2018-01-10T17:00:49.339Z,9.60
2018-01-10T17:03:16.767Z,9.60
2018-01-10T17:05:44.197Z,9.60
2018-01-10T17:08:11.675Z,9.60
2018-01-10T17:10:39.106Z,9.60
2018-01-10T17:13:06.527Z,9.50
2018-01-10T17:15:34.112Z,9.50
2018-01-10T17:18:01.523Z,9.50
2018-01-10T17:20:28.948Z,9.50
2018-01-10T17:22:56.411Z,9.50
2018-01-10T17:25:24.548Z,9.50
2018-01-10T17:27:51.975Z,9.50
2018-01-10T17:30:19.391Z,9.50
2018-01-10T17:32:46.814Z,9.50
2018-01-10T17:35:15.025Z,9.50
2018-01-10T17:37:42.451Z,9.40
2018-01-10T17:40:09.863Z,9.40
2018-01-10T17:42:37.295Z,9.40
2018-01-10T17:45:04.716Z,9.40
2018-01-10T17:47:33.144Z,9.30
2018-01-10T17:50:00.567Z,9.30
2018-01-10T17:52:28.139Z,9.30
2018-01-10T17:54:55.566Z,9.30
2018-01-10T17:57:22.987Z,9.30
2018-01-10T17:59:50.438Z,9.20
2018-01-10T18:02:17.867Z,9.20
2018-01-10T18:04:45.307Z,9.20
2018-01-10T18:07:12.719Z,9.10
2018-01-10T18:09:40.143Z,9.10
2018-01-10T18:12:07.567Z,9.10
2018-01-10T18:14:34.994Z,9.00
2018-01-10T18:17:02.582Z,9.00
2018-01-10T18:19:30.054Z,8.90
2018-01-10T18:21:57.423Z,8.80
2018-01-10T18:24:24.844Z,8.80
2018-01-10T18:26:52.413Z,8.70
2018-01-10T18:29:19.811Z,8.70
2018-01-10T18:31:47.241Z,8.70
2018-01-10T18:34:14.663Z,8.60
2018-01-10T18:36:42.105Z,8.60
2018-01-10T18:39:09.523Z,8.60
2018-01-10T18:41:36.953Z,8.60
2018-01-10T18:44:04.379Z,8.60
2018-01-10T18:46:31.865Z,8.60
2018-01-10T18:48:59.283Z,8.60
2018-01-10T18:51:26.714Z,8.50
2018-01-10T18:53:54.140Z,8.50
2018-01-10T18:56:21.571Z,8.50
2018-01-10T18:58:49.016Z,8.50
2018-01-10T19:01:17.212Z,8.50
2018-01-10T19:03:44.627Z,8.50
2018-01-10T19:06:12.140Z,8.50
2018-01-10T19:08:39.558Z,8.40
2018-01-10T19:11:06.981Z,8.30
2018-01-10T19:13:35.183Z,8.30
2018-01-10T19:16:02.608Z,8.30
2018-01-10T19:18:30.051Z,8.20
2018-01-10T19:20:57.463Z,8.20
2018-01-10T19:23:24.915Z,8.20
2018-01-10T19:25:52.331Z,8.30
2018-01-10T19:28:19.767Z,8.30
2018-01-10T19:30:47.191Z,8.30
2018-01-10T19:33:14.619Z,8.30
2018-01-10T19:35:42.804Z,8.30
2018-01-10T19:38:10.241Z,8.30
2018-01-10T19:40:37.660Z,8.30
2018-01-10T19:43:05.218Z,8.30
2018-01-10T19:45:32.639Z,8.30
2018-01-10T19:48:00.075Z,8.20
2018-01-10T19:50:27.494Z,8.20
2018-01-10T19:52:54.912Z,8.20
2018-01-10T19:55:22.345Z,8.20
2018-01-10T19:57:50.535Z,8.20
2018-01-10T20:00:17.975Z,8.20
2018-01-10T20:02:45.475Z,8.20
2018-01-10T20:05:12.907Z,8.20
2018-01-10T20:07:40.331Z,8.20
2018-01-10T20:10:07.760Z,8.20
2018-01-10T20:12:35.179Z,8.20
2018-01-10T20:15:02.699Z,8.20
2018-01-10T20:17:30.114Z,8.10
2018-01-10T20:19:57.552Z,8.20
2018-01-10T20:22:24.976Z,8.10
2018-01-10T20:24:53.180Z,8.10
2018-01-10T20:27:20.596Z,8.10
2018-01-10T20:29:48.039Z,8.10
2018-01-10T20:32:15.460Z,8.10
2018-01-10T20:34:42.897Z,8.10
2018-01-10T20:37:10.319Z,8.10
2018-01-10T20:39:38.513Z,8.10
2018-01-10T20:42:05.943Z,8.10
2018-01-10T20:44:33.367Z,8.10
2018-01-10T20:47:00.807Z,8.10
2018-01-10T20:49:28.227Z,8.10
2018-01-10T20:51:56.419Z,8.10
2018-01-10T20:54:23.844Z,8.00
2018-01-10T20:56:51.279Z,8.10
2018-01-10T20:59:18.701Z,8.00
2018-01-10T21:01:46.135Z,8.00
2018-01-10T21:04:13.625Z,8.00
2018-01-10T21:06:41.058Z,8.00
2018-01-10T21:09:08.484Z,8.00
2018-01-10T21:11:36.688Z,8.00
2018-01-10T21:14:04.111Z,7.90
2018-01-10T21:16:31.539Z,8.00
2018-01-10T21:18:58.955Z,7.90
2018-01-10T21:21:26.387Z,8.00
2018-01-10T21:23:54.575Z,8.00
2018-01-10T21:26:22.011Z,8.00
2018-01-10T21:28:49.436Z,8.00
2018-01-10T21:31:17.635Z,8.00
2018-01-10T21:33:45.050Z,8.00
2018-01-10T21:36:12.479Z,8.00
2018-01-10T21:38:39.895Z,8.00
2018-01-10T21:41:07.323Z,8.00
2018-01-10T21:43:34.734Z,8.00
2018-01-10T21:46:02.167Z,7.90
2018-01-10T21:48:30.375Z,7.90
2018-01-10T21:50:57.795Z,7.90
2018-01-10T21:53:25.219Z,7.90
2018-01-10T21:55:52.656Z,7.90
2018-01-10T21:58:20.066Z,7.90
2018-01-10T22:00:48.259Z,7.90
2018-01-10T22:03:15.674Z,7.90
2018-01-10T22:05:43.106Z,7.90
2018-01-10T22:08:10.531Z,7.90
2018-01-10T22:10:37.947Z,7.80
2018-01-10T22:13:05.383Z,7.80
2018-01-10T22:15:32.809Z,7.80
2018-01-10T22:18:00.231Z,7.80
2018-01-10T22:20:27.843Z,7.80
2018-01-10T22:22:55.274Z,7.80
2018-01-10T22:25:22.693Z,7.80
2018-01-10T22:27:50.124Z,7.80
2018-01-10T22:30:17.551Z,7.70
2018-01-10T22:32:44.979Z,7.70
2018-01-10T22:35:13.159Z,7.70
2018-01-10T22:37:40.592Z,7.70
2018-01-10T22:40:08.016Z,7.70
2018-01-10T22:42:35.448Z,7.70
2018-01-10T22:45:02.867Z,7.70
2018-01-10T22:47:30.299Z,7.70
2018-01-10T22:49:57.718Z,7.70
2018-01-10T22:52:25.151Z,7.70
2018-01-10T22:54:52.581Z,7.80
2018-01-10T22:57:20.007Z,7.70
2018-01-10T22:59:47.427Z,7.70
2018-01-10T23:02:14.859Z,7.60
2018-01-10T23:04:43.047Z,7.70
2018-01-10T23:07:10.470Z,7.70
2018-01-10T23:09:37.903Z,7.70
2018-01-10T23:12:05.343Z,7.70
2018-01-10T23:14:32.768Z,7.70
2018-01-10T23:17:00.202Z,7.70
2018-01-10T23:19:28.391Z,7.70
2018-01-10T23:21:55.864Z,7.70
2018-01-10T23:24:23.254Z,7.80
2018-01-10T23:26:50.694Z,7.80
2018-01-10T23:29:18.131Z,7.80
2018-01-10T23:31:45.590Z,7.80
2018-01-10T23:34:13.015Z,7.80
2018-01-10T23:36:41.207Z,7.80
2018-01-10T23:39:08.643Z,7.80
2018-01-10T23:41:36.087Z,7.80
2018-01-10T23:44:03.527Z,7.80
2018-01-10T23:46:30.963Z,7.80
2018-01-10T23:48:58.382Z,7.80
2018-01-10T23:51:25.819Z,7.90
2018-01-10T23:53:54.007Z,7.90
2018-01-10T23:56:21.447Z,7.80
2018-01-10T23:58:48.871Z,7.90
